Wanamakers, Pennsylvania
Current Conditions -  °F | °C
As of 1:54 PM on Thursday 23 Oct 2014 (Local Time) from KRDG Reporting Station
Overcast Overcast  
Wind Chill: 12°   Ceiling: 2600
Heat Index: 12°   Visibility: 10mi
Dew Point:   Wind: 17mph
Humidity: 69%   Direction: 340°NNW
Pressure: 29.82"   Gusts: NA
Location:  40.6329°N, 75.8768°W
Report Text: KRDG 231754Z 34015KT 10SM OVC026 12/07 A2982 RMK AO2 SLP101 60000 T01220067 10128 20106 56007
Loading
Personal Weather Stations






























Interactive Weather Map
Tropical Storm Tracking
New forecast layout! Learn more

10-Day Weather Forecast

Advertisements
Track Severe Weather on mobile